PHF weather

Newport News Williamsburg International Airport
Newport News, Virginia, United States

Public forecast

Using degrees Fahrenheit for public forecast. Weather courtesy of forecast.io.

Current aviation weather report (METAR) for Newport News Williamsburg International Airport

Retrieved 2019/10/17 00:54 UTC (55 minutes ago):

KPHF 170054Z 31011KT 10SM SCT030 BKN049 16/12 A2958 RMK AO2 SLP017 T01610117

Aviation forecast (TAF) for Newport News Williamsburg International Airport

Retrieved 2019-10-17 00:42 UTC (1 hour ago):

TAF KPHF 162338Z 1700/1724 29013G22KT P6SM FEW120 FM171400 27015G25KT P6SM SKC